sensor_id;sensor_type;location;lat;lon;timestamp;pressure;altitude;pressure_sealevel;temperature;humidity
33554;BME280;19885;42.208;24.952;2023-03-04T00:01:01;100028.78;;;4.21;100.00
33554;BME280;19885;42.208;24.952;2023-03-04T00:03:26;100028.19;;;4.04;100.00
33554;BME280;19885;42.208;24.952;2023-03-04T00:05:52;100027.66;;;4.13;100.00
33554;BME280;19885;42.208;24.952;2023-03-04T00:08:17;99960.13;;;3.74;100.00
33554;BME280;19885;42.208;24.952;2023-03-04T00:10:43;100028.31;;;4.32;100.00
33554;BME280;19885;42.208;24.952;2023-03-04T00:13:11;100031.06;;;3.88;100.00
33554;BME280;19885;42.208;24.952;2023-03-04T00:15:37;100034.66;;;3.24;100.00
33554;BME280;19885;42.208;24.952;2023-03-04T00:18:05;100035.81;;;3.10;100.00
33554;BME280;19885;42.208;24.952;2023-03-04T00:20:31;100022.97;;;3.10;100.00
33554;BME280;19885;42.208;24.952;2023-03-04T00:22:56;100027.72;;;2.78;100.00
33554;BME280;19885;42.208;24.952;2023-03-04T00:25:22;100018.50;;;2.83;100.00
33554;BME280;19885;42.208;24.952;2023-03-04T00:27:47;100012.53;;;2.84;100.00
33554;BME280;19885;42.208;24.952;2023-03-04T00:30:13;100023.88;;;3.12;100.00
33554;BME280;19885;42.208;24.952;2023-03-04T00:32:38;100012.44;;;3.26;100.00
33554;BME280;19885;42.208;24.952;2023-03-04T00:35:05;100016.63;;;3.46;100.00
33554;BME280;19885;42.208;24.952;2023-03-04T00:37:31;100020.63;;;3.61;100.00
33554;BME280;19885;42.208;24.952;2023-03-04T00:39:56;100012.78;;;3.82;100.00
33554;BME280;19885;42.208;24.952;2023-03-04T00:42:22;99997.56;;;3.88;100.00
33554;BME280;19885;42.208;24.952;2023-03-04T00:44:48;100016.19;;;4.05;100.00
33554;BME280;19885;42.208;24.952;2023-03-04T00:47:15;100016.41;;;4.11;100.00
33554;BME280;19885;42.208;24.952;2023-03-04T00:49:41;100011.34;;;4.14;100.00
33554;BME280;19885;42.208;24.952;2023-03-04T00:52:07;99995.66;;;4.08;100.00
33554;BME280;19885;42.208;24.952;2023-03-04T00:54:32;99992.22;;;4.07;100.00
33554;BME280;19885;42.208;24.952;2023-03-04T00:56:58;100017.25;;;4.11;100.00
33554;BME280;19885;42.208;24.952;2023-03-04T00:59:24;100008.84;;;4.15;100.00
33554;BME280;19885;42.208;24.952;2023-03-04T01:01:49;100024.50;;;4.21;100.00
33554;BME280;19885;42.208;24.952;2023-03-04T01:04:15;100003.69;;;4.15;100.00
33554;BME280;19885;42.208;24.952;2023-03-04T01:06:40;99983.03;;;3.90;100.00
33554;BME280;19885;42.208;24.952;2023-03-04T01:09:06;100012.03;;;4.08;100.00
33554;BME280;19885;42.208;24.952;2023-03-04T01:11:32;100011.50;;;4.18;100.00
33554;BME280;19885;42.208;24.952;2023-03-04T01:13:58;100000.09;;;4.12;100.00
33554;BME280;19885;42.208;24.952;2023-03-04T01:16:23;100009.84;;;4.20;100.00
33554;BME280;19885;42.208;24.952;2023-03-04T01:18:49;100005.34;;;4.13;100.00
33554;BME280;19885;42.208;24.952;2023-03-04T01:21:14;100003.69;;;4.15;100.00
33554;BME280;19885;42.208;24.952;2023-03-04T01:23:40;100005.97;;;4.08;100.00
33554;BME280;19885;42.208;24.952;2023-03-04T01:26:05;100012.09;;;4.11;100.00
33554;BME280;19885;42.208;24.952;2023-03-04T01:28:31;99997.16;;;4.01;100.00
33554;BME280;19885;42.208;24.952;2023-03-04T01:31:02;100008.41;;;4.03;100.00
33554;BME280;19885;42.208;24.952;2023-03-04T01:33:29;100005.81;;;4.03;100.00
33554;BME280;19885;42.208;24.952;2023-03-04T01:35:54;99991.84;;;3.97;100.00
33554;BME280;19885;42.208;24.952;2023-03-04T01:38:21;99994.19;;;3.91;100.00
33554;BME280;19885;42.208;24.952;2023-03-04T01:40:46;99948.34;;;3.81;100.00
33554;BME280;19885;42.208;24.952;2023-03-04T01:43:18;99997.53;;;4.12;100.00
33554;BME280;19885;42.208;24.952;2023-03-04T01:45:47;99989.75;;;4.10;100.00
33554;BME280;19885;42.208;24.952;2023-03-04T01:48:15;99980.97;;;4.05;100.00
33554;BME280;19885;42.208;24.952;2023-03-04T01:50:42;99985.94;;;3.99;100.00
33554;BME280;19885;42.208;24.952;2023-03-04T01:53:16;99987.03;;;3.82;100.00
33554;BME280;19885;42.208;24.952;2023-03-04T01:55:43;99944.28;;;3.63;100.00
33554;BME280;19885;42.208;24.952;2023-03-04T01:58:09;99992.81;;;4.00;100.00
33554;BME280;19885;42.208;24.952;2023-03-04T02:00:36;99998.50;;;3.90;100.00
33554;BME280;19885;42.208;24.952;2023-03-04T02:03:08;99980.66;;;3.96;100.00
33554;BME280;19885;42.208;24.952;2023-03-04T02:05:36;99988.81;;;4.08;100.00
33554;BME280;19885;42.208;24.952;2023-03-04T02:08:03;99994.44;;;3.97;100.00
33554;BME280;19885;42.208;24.952;2023-03-04T02:10:29;99976.28;;;3.46;100.00
33554;BME280;19885;42.208;24.952;2023-03-04T02:12:55;100011.72;;;3.52;100.00
33554;BME280;19885;42.208;24.952;2023-03-04T02:15:22;99923.50;;;3.34;100.00
33554;BME280;19885;42.208;24.952;2023-03-04T02:17:48;99996.84;;;3.92;100.00
33554;BME280;19885;42.208;24.952;2023-03-04T02:20:59;99985.81;;;3.96;100.00
33554;BME280;19885;42.208;24.952;2023-03-04T02:26:14;99979.94;;;4.00;100.00
33554;BME280;19885;42.208;24.952;2023-03-04T02:28:41;99990.25;;;4.00;99.92
33554;BME280;19885;42.208;24.952;2023-03-04T02:31:21;99992.81;;;4.00;99.79
33554;BME280;19885;42.208;24.952;2023-03-04T02:33:46;99993.75;;;4.02;100.00
33554;BME280;19885;42.208;24.952;2023-03-04T02:36:12;99991.31;;;4.07;100.00
33554;BME280;19885;42.208;24.952;2023-03-04T02:38:38;99981.78;;;4.04;100.00
33554;BME280;19885;42.208;24.952;2023-03-04T02:41:04;99979.03;;;4.00;100.00
33554;BME280;19885;42.208;24.952;2023-03-04T02:43:30;99982.63;;;4.03;100.00
33554;BME280;19885;42.208;24.952;2023-03-04T02:45:55;99970.34;;;3.96;100.00
33554;BME280;19885;42.208;24.952;2023-03-04T02:48:21;99967.72;;;3.95;100.00
33554;BME280;19885;42.208;24.952;2023-03-04T02:50:52;99965.38;;;4.02;99.78
33554;BME280;19885;42.208;24.952;2023-03-04T02:53:18;99965.31;;;3.99;100.00
33554;BME280;19885;42.208;24.952;2023-03-04T02:55:45;99965.03;;;3.92;100.00
33554;BME280;19885;42.208;24.952;2023-03-04T02:58:12;99971.06;;;3.92;99.97
33554;BME280;19885;42.208;24.952;2023-03-04T03:00:38;99937.97;;;3.79;99.89
33554;BME280;19885;42.208;24.952;2023-03-04T03:03:04;99971.47;;;3.79;100.00
33554;BME280;19885;42.208;24.952;2023-03-04T03:05:31;99967.25;;;3.81;100.00
33554;BME280;19885;42.208;24.952;2023-03-04T03:07:57;99975.50;;;3.73;100.00
33554;BME280;19885;42.208;24.952;2023-03-04T03:10:23;99968.47;;;3.67;100.00
33554;BME280;19885;42.208;24.952;2023-03-04T03:12:48;99978.16;;;3.74;100.00
33554;BME280;19885;42.208;24.952;2023-03-04T03:15:14;99985.72;;;3.70;100.00
33554;BME280;19885;42.208;24.952;2023-03-04T03:17:39;99993.19;;;3.62;100.00
33554;BME280;19885;42.208;24.952;2023-03-04T03:20:05;99991.44;;;3.61;100.00
33554;BME280;19885;42.208;24.952;2023-03-04T03:22:31;100000.25;;;3.68;100.00
33554;BME280;19885;42.208;24.952;2023-03-04T03:24:57;99989.25;;;3.72;100.00
33554;BME280;19885;42.208;24.952;2023-03-04T03:27:22;99997.25;;;3.79;100.00
33554;BME280;19885;42.208;24.952;2023-03-04T03:29:48;99992.28;;;3.61;100.00
33554;BME280;19885;42.208;24.952;2023-03-04T03:32:13;99994.56;;;3.76;100.00
33554;BME280;19885;42.208;24.952;2023-03-04T03:34:38;99998.22;;;3.83;100.00
33554;BME280;19885;42.208;24.952;2023-03-04T03:37:04;99993.28;;;3.89;100.00
33554;BME280;19885;42.208;24.952;2023-03-04T03:39:29;99996.00;;;3.93;100.00
33554;BME280;19885;42.208;24.952;2023-03-04T03:41:55;99994.75;;;3.82;100.00
33554;BME280;19885;42.208;24.952;2023-03-04T03:44:20;99998.34;;;3.86;100.00
33554;BME280;19885;42.208;24.952;2023-03-04T03:46:46;99992.19;;;3.82;100.00
33554;BME280;19885;42.208;24.952;2023-03-04T03:49:11;99998.88;;;3.77;100.00
33554;BME280;19885;42.208;24.952;2023-03-04T03:51:37;100001.28;;;3.73;100.00
33554;BME280;19885;42.208;24.952;2023-03-04T03:54:03;99998.13;;;3.56;100.00
33554;BME280;19885;42.208;24.952;2023-03-04T03:56:28;99986.16;;;3.58;100.00
33554;BME280;19885;42.208;24.952;2023-03-04T03:58:53;99995.03;;;3.66;100.00
33554;BME280;19885;42.208;24.952;2023-03-04T04:01:19;99982.59;;;3.54;100.00
33554;BME280;19885;42.208;24.952;2023-03-04T04:03:44;99994.44;;;3.73;100.00
33554;BME280;19885;42.208;24.952;2023-03-04T04:06:10;100000.44;;;3.50;100.00
33554;BME280;19885;42.208;24.952;2023-03-04T04:08:35;99994.28;;;3.01;100.00
33554;BME280;19885;42.208;24.952;2023-03-04T04:11:01;99997.09;;;3.29;100.00
33554;BME280;19885;42.208;24.952;2023-03-04T04:13:26;99994.94;;;3.63;100.00
33554;BME280;19885;42.208;24.952;2023-03-04T04:15:52;99988.56;;;3.77;100.00
33554;BME280;19885;42.208;24.952;2023-03-04T04:18:21;99985.28;;;3.81;100.00
33554;BME280;19885;42.208;24.952;2023-03-04T04:20:48;99983.31;;;3.74;100.00
33554;BME280;19885;42.208;24.952;2023-03-04T04:23:13;99981.66;;;3.76;100.00
33554;BME280;19885;42.208;24.952;2023-03-04T04:25:38;99981.56;;;3.73;100.00
33554;BME280;19885;42.208;24.952;2023-03-04T04:28:05;99987.09;;;3.84;100.00
33554;BME280;19885;42.208;24.952;2023-03-04T04:30:30;100002.19;;;3.49;100.00
33554;BME280;19885;42.208;24.952;2023-03-04T04:32:56;99993.94;;;3.83;100.00
33554;BME280;19885;42.208;24.952;2023-03-04T04:35:26;99992.41;;;3.88;100.00
33554;BME280;19885;42.208;24.952;2023-03-04T04:37:52;99993.06;;;4.06;100.00
33554;BME280;19885;42.208;24.952;2023-03-04T04:40:18;100006.19;;;4.14;100.00
33554;BME280;19885;42.208;24.952;2023-03-04T04:42:44;99998.66;;;3.95;100.00
33554;BME280;19885;42.208;24.952;2023-03-04T04:45:10;100010.50;;;4.13;100.00
33554;BME280;19885;42.208;24.952;2023-03-04T04:47:36;99952.81;;;3.86;100.00
33554;BME280;19885;42.208;24.952;2023-03-04T04:50:02;99999.53;;;4.20;100.00
33554;BME280;19885;42.208;24.952;2023-03-04T04:52:28;99998.59;;;4.18;100.00
33554;BME280;19885;42.208;24.952;2023-03-04T04:54:54;100007.66;;;4.31;100.00
33554;BME280;19885;42.208;24.952;2023-03-04T04:57:23;100009.22;;;4.27;100.00
33554;BME280;19885;42.208;24.952;2023-03-04T04:59:49;99955.06;;;4.02;100.00
33554;BME280;19885;42.208;24.952;2023-03-04T05:02:15;100010.31;;;4.34;100.00
33554;BME280;19885;42.208;24.952;2023-03-04T05:04:41;100001.28;;;4.21;100.00
33554;BME280;19885;42.208;24.952;2023-03-04T05:07:06;99998.84;;;4.24;100.00
33554;BME280;19885;42.208;24.952;2023-03-04T05:09:32;100005.56;;;4.21;100.00
33554;BME280;19885;42.208;24.952;2023-03-04T05:11:57;100012.84;;;4.07;100.00
33554;BME280;19885;42.208;24.952;2023-03-04T05:14:23;100014.88;;;3.92;100.00
33554;BME280;19885;42.208;24.952;2023-03-04T05:16:50;100012.78;;;3.82;100.00
33554;BME280;19885;42.208;24.952;2023-03-04T05:19:19;100004.47;;;3.89;100.00
33554;BME280;19885;42.208;24.952;2023-03-04T05:21:45;100020.47;;;3.81;100.00
33554;BME280;19885;42.208;24.952;2023-03-04T05:24:10;100031.13;;;4.13;100.00
33554;BME280;19885;42.208;24.952;2023-03-04T05:26:36;100012.03;;;4.08;100.00
33554;BME280;19885;42.208;24.952;2023-03-04T05:29:02;100030.34;;;3.92;100.00
33554;BME280;19885;42.208;24.952;2023-03-04T05:31:28;100027.75;;;3.69;100.00
33554;BME280;19885;42.208;24.952;2023-03-04T05:33:54;100020.97;;;3.94;100.00
33554;BME280;19885;42.208;24.952;2023-03-04T05:36:19;100019.97;;;4.14;100.00
33554;BME280;19885;42.208;24.952;2023-03-04T05:38:45;100016.97;;;4.27;100.00
33554;BME280;19885;42.208;24.952;2023-03-04T05:41:10;100020.63;;;4.34;100.00
33554;BME280;19885;42.208;24.952;2023-03-04T05:43:36;100009.47;;;4.33;100.00
33554;BME280;19885;42.208;24.952;2023-03-04T05:46:08;100024.47;;;4.45;100.00
33554;BME280;19885;42.208;24.952;2023-03-04T05:48:33;100026.78;;;4.38;100.00
33554;BME280;19885;42.208;24.952;2023-03-04T05:51:00;100034.22;;;4.28;100.00
33554;BME280;19885;42.208;24.952;2023-03-04T05:53:26;100026.97;;;4.44;100.00
33554;BME280;19885;42.208;24.952;2023-03-04T05:55:52;100019.66;;;4.56;100.00
33554;BME280;19885;42.208;24.952;2023-03-04T05:58:18;100004.34;;;4.62;100.00
33554;BME280;19885;42.208;24.952;2023-03-04T06:00:44;100007.63;;;4.56;100.00
33554;BME280;19885;42.208;24.952;2023-03-04T06:03:21;100031.38;;;4.73;100.00
33554;BME280;19885;42.208;24.952;2023-03-04T06:05:47;100017.78;;;4.77;100.00
33554;BME280;19885;42.208;24.952;2023-03-04T06:08:13;100020.44;;;4.80;100.00
33554;BME280;19885;42.208;24.952;2023-03-04T06:10:39;100034.66;;;4.94;100.00
33554;BME280;19885;42.208;24.952;2023-03-04T06:13:05;100027.44;;;4.57;100.00
33554;BME280;19885;42.208;24.952;2023-03-04T06:15:31;99984.50;;;4.09;100.00
33554;BME280;19885;42.208;24.952;2023-03-04T06:17:57;100025.84;;;4.10;100.00
33554;BME280;19885;42.208;24.952;2023-03-04T06:20:22;100038.13;;;3.94;100.00
33554;BME280;19885;42.208;24.952;2023-03-04T06:22:48;100042.38;;;4.41;100.00
33554;BME280;19885;42.208;24.952;2023-03-04T06:25:13;100046.69;;;4.67;100.00
33554;BME280;19885;42.208;24.952;2023-03-04T06:27:39;100045.31;;;4.78;100.00
33554;BME280;19885;42.208;24.952;2023-03-04T06:30:05;100045.72;;;4.90;100.00
33554;BME280;19885;42.208;24.952;2023-03-04T06:32:32;100033.75;;;4.92;100.00
33554;BME280;19885;42.208;24.952;2023-03-04T06:34:57;100050.41;;;5.01;100.00
33554;BME280;19885;42.208;24.952;2023-03-04T06:37:23;100044.47;;;5.04;100.00
33554;BME280;19885;42.208;24.952;2023-03-04T06:39:48;100053.19;;;5.09;100.00
33554;BME280;19885;42.208;24.952;2023-03-04T06:42:14;100037.34;;;4.97;100.00
33554;BME280;19885;42.208;24.952;2023-03-04T06:44:40;100072.41;;;4.90;100.00
33554;BME280;19885;42.208;24.952;2023-03-04T06:47:05;100071.13;;;4.78;100.00
33554;BME280;19885;42.208;24.952;2023-03-04T06:49:31;100070.84;;;4.95;100.00
33554;BME280;19885;42.208;24.952;2023-03-04T06:51:57;100070.75;;;5.19;100.00
33554;BME280;19885;42.208;24.952;2023-03-04T06:54:22;100068.63;;;5.34;100.00
33554;BME280;19885;42.208;24.952;2023-03-04T06:56:48;100069.19;;;5.24;100.00
33554;BME280;19885;42.208;24.952;2023-03-04T06:59:13;100070.84;;;5.22;100.00
33554;BME280;19885;42.208;24.952;2023-03-04T07:01:39;100073.38;;;5.47;100.00
33554;BME280;19885;42.208;24.952;2023-03-04T07:04:04;100075.28;;;5.54;100.00
33554;BME280;19885;42.208;24.952;2023-03-04T07:06:33;100052.69;;;5.47;100.00
33554;BME280;19885;42.208;24.952;2023-03-04T07:08:58;100075.63;;;5.66;100.00
33554;BME280;19885;42.208;24.952;2023-03-04T07:11:24;100067.13;;;5.70;100.00
33554;BME280;19885;42.208;24.952;2023-03-04T07:13:50;100062.72;;;5.66;100.00
33554;BME280;19885;42.208;24.952;2023-03-04T07:16:19;100076.00;;;5.78;100.00
33554;BME280;19885;42.208;24.952;2023-03-04T07:18:45;100053.91;;;5.88;100.00
33554;BME280;19885;42.208;24.952;2023-03-04T07:21:12;100058.72;;;5.77;100.00
33554;BME280;19885;42.208;24.952;2023-03-04T07:23:38;100068.16;;;6.04;100.00
33554;BME280;19885;42.208;24.952;2023-03-04T07:26:04;100070.78;;;6.07;100.00
33554;BME280;19885;42.208;24.952;2023-03-04T07:28:30;100065.63;;;6.07;100.00
33554;BME280;19885;42.208;24.952;2023-03-04T07:30:55;100055.63;;;6.19;100.00
33554;BME280;19885;42.208;24.952;2023-03-04T07:33:21;100059.59;;;6.39;100.00
33554;BME280;19885;42.208;24.952;2023-03-04T07:35:57;100068.72;;;6.56;100.00
33554;BME280;19885;42.208;24.952;2023-03-04T07:38:23;100067.91;;;6.27;100.00
33554;BME280;19885;42.208;24.952;2023-03-04T07:40:57;100067.50;;;6.12;100.00
33554;BME280;19885;42.208;24.952;2023-03-04T07:43:22;100059.44;;;6.31;100.00
33554;BME280;19885;42.208;24.952;2023-03-04T07:45:48;100062.44;;;6.48;100.00
33554;BME280;19885;42.208;24.952;2023-03-04T07:48:16;100057.50;;;6.24;100.00
33554;BME280;19885;42.208;24.952;2023-03-04T07:50:41;100052.16;;;6.51;100.00
33554;BME280;19885;42.208;24.952;2023-03-04T07:53:07;100060.03;;;6.54;100.00
33554;BME280;19885;42.208;24.952;2023-03-04T07:55:32;100043.44;;;6.82;100.00
33554;BME280;19885;42.208;24.952;2023-03-04T07:57:58;100051.75;;;7.04;99.87
33554;BME280;19885;42.208;24.952;2023-03-04T08:00:24;100062.41;;;7.15;98.31
33554;BME280;19885;42.208;24.952;2023-03-04T08:02:50;100057.38;;;7.22;97.89
33554;BME280;19885;42.208;24.952;2023-03-04T08:05:15;100051.66;;;7.37;98.73
33554;BME280;19885;42.208;24.952;2023-03-04T08:07:41;100050.06;;;7.42;97.31
33554;BME280;19885;42.208;24.952;2023-03-04T08:10:07;100045.56;;;7.34;97.80
33554;BME280;19885;42.208;24.952;2023-03-04T08:12:34;99987.25;;;7.15;98.73
33554;BME280;19885;42.208;24.952;2023-03-04T08:15:00;100046.41;;;7.34;98.20
33554;BME280;19885;42.208;24.952;2023-03-04T08:17:25;100028.31;;;7.36;97.87
33554;BME280;19885;42.208;24.952;2023-03-04T08:19:54;100046.34;;;7.70;98.38
33554;BME280;19885;42.208;24.952;2023-03-04T08:22:20;100050.66;;;7.69;97.62
33554;BME280;19885;42.208;24.952;2023-03-04T08:24:45;100026.53;;;7.73;97.01
33554;BME280;19885;42.208;24.952;2023-03-04T08:27:11;100047.28;;;7.73;96.58
33554;BME280;19885;42.208;24.952;2023-03-04T08:29:36;100043.28;;;7.11;98.39
33554;BME280;19885;42.208;24.952;2023-03-04T08:32:02;100052.84;;;7.14;100.00
33554;BME280;19885;42.208;24.952;2023-03-04T08:34:30;100046.78;;;7.13;100.00
33554;BME280;19885;42.208;24.952;2023-03-04T08:36:56;100048.03;;;7.29;100.00
33554;BME280;19885;42.208;24.952;2023-03-04T08:39:22;100057.38;;;7.22;100.00
33554;BME280;19885;42.208;24.952;2023-03-04T08:41:48;100050.59;;;6.92;100.00
33554;BME280;19885;42.208;24.952;2023-03-04T08:44:14;100059.16;;;6.88;100.00
33554;BME280;19885;42.208;24.952;2023-03-04T08:46:41;100057.16;;;7.13;100.00
33554;BME280;19885;42.208;24.952;2023-03-04T08:49:10;100060.09;;;6.91;100.00
33554;BME280;19885;42.208;24.952;2023-03-04T08:51:35;100060.16;;;6.94;100.00
33554;BME280;19885;42.208;24.952;2023-03-04T08:54:02;100064.09;;;6.79;100.00
33554;BME280;19885;42.208;24.952;2023-03-04T08:56:28;100059.56;;;6.70;100.00
33554;BME280;19885;42.208;24.952;2023-03-04T08:58:53;100056.38;;;6.82;100.00
33554;BME280;19885;42.208;24.952;2023-03-04T09:01:19;100067.50;;;7.12;100.00
33554;BME280;19885;42.208;24.952;2023-03-04T09:03:44;100055.22;;;7.03;100.00
33554;BME280;19885;42.208;24.952;2023-03-04T09:06:13;100051.03;;;7.08;100.00
33554;BME280;19885;42.208;24.952;2023-03-04T09:08:38;100046.47;;;7.36;100.00
33554;BME280;19885;42.208;24.952;2023-03-04T09:11:04;100046.88;;;7.54;100.00
33554;BME280;19885;42.208;24.952;2023-03-04T09:13:30;100044.06;;;7.86;100.00
33554;BME280;19885;42.208;24.952;2023-03-04T09:15:56;100034.47;;;8.24;98.34
33554;BME280;19885;42.208;24.952;2023-03-04T09:18:22;100038.56;;;8.59;96.38
33554;BME280;19885;42.208;24.952;2023-03-04T09:20:48;100035.53;;;8.85;95.92
33554;BME280;19885;42.208;24.952;2023-03-04T09:23:14;100034.06;;;9.02;93.58
33554;BME280;19885;42.208;24.952;2023-03-04T09:25:41;100023.66;;;9.02;92.83
33554;BME280;19885;42.208;24.952;2023-03-04T09:28:07;100024.69;;;9.10;91.97
33554;BME280;19885;42.208;24.952;2023-03-04T09:30:33;100029.16;;;9.20;91.12
33554;BME280;19885;42.208;24.952;2023-03-04T09:32:59;100035.53;;;9.40;90.68
33554;BME280;19885;42.208;24.952;2023-03-04T09:35:25;100024.56;;;9.62;90.81
33554;BME280;19885;42.208;24.952;2023-03-04T09:37:51;100018.69;;;9.78;90.29
33554;BME280;19885;42.208;24.952;2023-03-04T09:40:23;100010.16;;;9.91;88.62
33554;BME280;19885;42.208;24.952;2023-03-04T09:42:53;99999.19;;;10.17;88.67
33554;BME280;19885;42.208;24.952;2023-03-04T09:45:22;100007.16;;;10.32;87.17
33554;BME280;19885;42.208;24.952;2023-03-04T09:47:51;100005.38;;;10.28;86.32
33554;BME280;19885;42.208;24.952;2023-03-04T09:50:19;100003.78;;;10.42;86.45
33554;BME280;19885;42.208;24.952;2023-03-04T09:58:24;99999.59;;;10.56;86.80
33554;BME280;19885;42.208;24.952;2023-03-04T10:00:55;99975.94;;;10.35;84.21
33554;BME280;19885;42.208;24.952;2023-03-04T10:03:50;99983.00;;;10.45;84.56
33554;BME280;19885;42.208;24.952;2023-03-04T10:06:19;99991.66;;;10.42;86.17
33554;BME280;19885;42.208;24.952;2023-03-04T10:12:01;99967.00;;;11.18;84.51
33554;BME280;19885;42.208;24.952;2023-03-04T10:14:42;99982.16;;;11.83;81.71
33554;BME280;19885;42.208;24.952;2023-03-04T10:20:08;99925.56;;;11.86;77.54
33554;BME280;19885;42.208;24.952;2023-03-04T10:22:45;99974.34;;;12.04;79.70
33554;BME280;19885;42.208;24.952;2023-03-04T10:25:21;99970.09;;;12.48;79.63
33554;BME280;19885;42.208;24.952;2023-03-04T10:28:00;99956.16;;;12.73;77.28
33554;BME280;19885;42.208;24.952;2023-03-04T10:30:42;99911.69;;;12.81;74.24
33554;BME280;19885;42.208;24.952;2023-03-04T10:33:25;99952.66;;;13.08;73.48
33554;BME280;19885;42.208;24.952;2023-03-04T10:38:46;99944.78;;;12.99;73.70
33554;BME280;19885;42.208;24.952;2023-03-04T10:41:20;99936.03;;;13.18;75.46
33554;BME280;19885;42.208;24.952;2023-03-04T10:44:15;99932.56;;;13.22;74.43
33554;BME280;19885;42.208;24.952;2023-03-04T10:46:43;99927.31;;;13.23;74.18
33554;BME280;19885;42.208;24.952;2023-03-04T10:49:10;99923.81;;;13.30;73.03
33554;BME280;19885;42.208;24.952;2023-03-04T10:54:47;99928.84;;;13.79;74.06
33554;BME280;19885;42.208;24.952;2023-03-04T10:57:15;99922.69;;;13.83;71.49
33554;BME280;19885;42.208;24.952;2023-03-04T11:00:30;99921.84;;;13.81;69.92
33554;BME280;19885;42.208;24.952;2023-03-04T11:02:30;99914.06;;;13.64;71.17
33554;BME280;19885;42.208;24.952;2023-03-04T11:05:10;99907.19;;;13.42;74.50
33554;BME280;19885;42.208;24.952;2023-03-04T11:07:52;99900.16;;;13.53;72.84
33554;BME280;19885;42.208;24.952;2023-03-04T11:10:27;99892.28;;;13.50;72.62
33554;BME280;19885;42.208;24.952;2023-03-04T11:18:22;99874.09;;;13.26;73.23
33554;BME280;19885;42.208;24.952;2023-03-04T11:20:51;99870.63;;;13.21;74.52
33554;BME280;19885;42.208;24.952;2023-03-04T11:25:55;99865.47;;;12.87;73.50
33554;BME280;19885;42.208;24.952;2023-03-04T11:31:03;99860.22;;;12.90;75.50
33554;BME280;19885;42.208;24.952;2023-03-04T11:33:47;99859.31;;;13.13;75.15
33554;BME280;19885;42.208;24.952;2023-03-04T11:36:31;99849.69;;;13.18;73.76
33554;BME280;19885;42.208;24.952;2023-03-04T11:38:58;99852.22;;;13.39;74.07
33554;BME280;19885;42.208;24.952;2023-03-04T11:43:51;99846.13;;;13.40;74.90
33554;BME280;19885;42.208;24.952;2023-03-04T11:46:33;99852.03;;;13.71;77.22
33554;BME280;19885;42.208;24.952;2023-03-04T11:52:03;99838.78;;;13.93;73.32
33554;BME280;19885;42.208;24.952;2023-03-04T11:55:20;99807.41;;;13.84;74.56
33554;BME280;19885;42.208;24.952;2023-03-04T12:00:35;99783.94;;;13.68;70.97
33554;BME280;19885;42.208;24.952;2023-03-04T12:05:53;99825.06;;;13.55;70.19
33554;BME280;19885;42.208;24.952;2023-03-04T12:11:01;99828.31;;;13.90;71.42
33554;BME280;19885;42.208;24.952;2023-03-04T12:13:51;99818.81;;;13.80;72.40
33554;BME280;19885;42.208;24.952;2023-03-04T12:29:59;99812.88;;;13.49;74.85
33554;BME280;19885;42.208;24.952;2023-03-04T12:38:19;99789.38;;;13.40;73.27
33554;BME280;19885;42.208;24.952;2023-03-04T12:40:57;99798.03;;;13.56;72.70
33554;BME280;19885;42.208;24.952;2023-03-04T12:49:00;99797.25;;;13.36;72.44
33554;BME280;19885;42.208;24.952;2023-03-04T12:51:50;99780.53;;;13.63;73.96
33554;BME280;19885;42.208;24.952;2023-03-04T12:54:24;99773.38;;;13.83;72.80
33554;BME280;19885;42.208;24.952;2023-03-04T12:57:08;99781.06;;;13.99;72.44
33554;BME280;19885;42.208;24.952;2023-03-04T12:59:44;99770.75;;;13.81;71.35
33554;BME280;19885;42.208;24.952;2023-03-04T13:02:32;99765.41;;;13.95;71.98
33554;BME280;19885;42.208;24.952;2023-03-04T13:05:07;99746.38;;;13.76;72.24
33554;BME280;19885;42.208;24.952;2023-03-04T13:07:47;99762.03;;;13.79;73.20
33554;BME280;19885;42.208;24.952;2023-03-04T13:10:17;99728.84;;;13.83;70.12
33554;BME280;19885;42.208;24.952;2023-03-04T13:12:57;99754.91;;;13.95;70.61
33554;BME280;19885;42.208;24.952;2023-03-04T13:17:51;99757.81;;;13.63;71.75
33554;BME280;19885;42.208;24.952;2023-03-04T13:41:15;99730.53;;;13.90;72.01
33554;BME280;19885;42.208;24.952;2023-03-04T13:43:53;99727.03;;;13.92;71.36
33554;BME280;19885;42.208;24.952;2023-03-04T13:51:38;99707.09;;;13.76;71.65
33554;BME280;19885;42.208;24.952;2023-03-04T13:56:43;99706.22;;;13.74;71.10
33554;BME280;19885;42.208;24.952;2023-03-04T13:59:21;99698.53;;;13.53;70.65
33554;BME280;19885;42.208;24.952;2023-03-04T14:06:57;99693.25;;;13.59;73.12
33554;BME280;19885;42.208;24.952;2023-03-04T14:09:31;99711.97;;;12.96;74.09
33554;BME280;19885;42.208;24.952;2023-03-04T14:11:59;99704.09;;;13.02;74.56
33554;BME280;19885;42.208;24.952;2023-03-04T14:14:43;99686.72;;;12.95;74.17
33554;BME280;19885;42.208;24.952;2023-03-04T14:17:19;99705.03;;;12.88;77.16
33554;BME280;19885;42.208;24.952;2023-03-04T14:19:46;99644.19;;;12.56;75.17
33554;BME280;19885;42.208;24.952;2023-03-04T14:22:39;99706.84;;;12.80;76.41
33554;BME280;19885;42.208;24.952;2023-03-04T14:27:38;99697.44;;;12.30;75.32
33554;BME280;19885;42.208;24.952;2023-03-04T14:30:19;99689.59;;;12.33;77.34
33554;BME280;19885;42.208;24.952;2023-03-04T14:32:45;99629.56;;;12.13;76.51
33554;BME280;19885;42.208;24.952;2023-03-04T14:35:23;99697.31;;;12.61;76.47
33554;BME280;19885;42.208;24.952;2023-03-04T14:38:05;99683.38;;;12.64;74.56
33554;BME280;19885;42.208;24.952;2023-03-04T14:40:39;99668.59;;;12.58;74.58